createdAt,value
2017-01-03T00:00:32.330Z,65.37
2017-01-03T00:01:32.785Z,65.69
2017-01-03T00:02:32.771Z,65.59
2017-01-03T00:03:32.766Z,65.56
2017-01-03T00:04:32.381Z,65.56
2017-01-03T00:05:32.793Z,65.37
2017-01-03T00:06:32.404Z,64.84
2017-01-03T00:07:32.420Z,65.09
2017-01-03T00:08:32.431Z,65.75
2017-01-03T00:09:32.451Z,65.56
2017-01-03T00:10:32.456Z,65.22
2017-01-03T00:11:32.865Z,65.31
2017-01-03T00:12:32.479Z,65.41
2017-01-03T00:13:32.890Z,65.28
2017-01-03T00:14:32.902Z,64.61
2017-01-03T00:15:32.517Z,64.74
2017-01-03T00:16:32.578Z,65
2017-01-03T00:17:32.546Z,65.56
2017-01-03T00:18:32.559Z,65.41
2017-01-03T00:19:32.986Z,65.19
2017-01-03T00:20:32.580Z,65.22
2017-01-03T00:21:32.592Z,65.56
2017-01-03T00:22:33.006Z,65.66
2017-01-03T00:23:32.614Z,65.28
2017-01-03T00:24:32.641Z,65.66
2017-01-03T00:25:33.037Z,65.56
2017-01-03T00:26:32.657Z,65.66
2017-01-03T00:27:32.664Z,66.03
2017-01-03T00:28:32.675Z,65.56
2017-01-03T00:29:33.089Z,65.66
2017-01-03T00:30:32.719Z,65.66
2017-01-03T00:31:33.117Z,65.66
2017-01-03T00:32:33.141Z,65.37
2017-01-03T00:33:32.741Z,65.75
2017-01-03T00:34:32.748Z,65.37
2017-01-03T00:35:33.172Z,65.66
2017-01-03T00:36:33.171Z,65.37
2017-01-03T00:37:32.785Z,65.56
2017-01-03T00:38:33.198Z,65.66
2017-01-03T00:39:33.210Z,65.75
2017-01-03T00:40:32.823Z,65.75
2017-01-03T00:41:32.832Z,65.41
2017-01-03T00:42:33.247Z,65.37
2017-01-03T00:43:33.258Z,65.28
2017-01-03T00:44:33.268Z,65.28
2017-01-03T00:45:32.893Z,65.94
2017-01-03T00:46:32.905Z,65.19
2017-01-03T00:47:33.308Z,65.09
2017-01-03T00:48:32.921Z,65.19
2017-01-03T00:49:32.930Z,65.28
2017-01-03T00:50:33.345Z,65.56
2017-01-03T00:51:32.957Z,66.07
2017-01-03T00:52:33.380Z,65.56
2017-01-03T00:53:33.380Z,65.59
2017-01-03T00:54:33.393Z,65.31
2017-01-03T00:55:33.013Z,65.75
2017-01-03T00:56:33.426Z,65.75
2017-01-03T00:57:33.030Z,65.41
2017-01-03T00:58:33.042Z,65.37
2017-01-03T00:59:33.456Z,65.22
2017-01-03T01:00:33.470Z,65.09
2017-01-03T01:01:33.083Z,65.5
2017-01-03T01:02:33.518Z,65.22
2017-01-03T01:03:33.112Z,65.56
2017-01-03T01:04:33.516Z,65.47
2017-01-03T01:05:33.133Z,64.93
2017-01-03T01:06:33.539Z,65.56
2017-01-03T01:07:33.557Z,65.09
2017-01-03T01:08:33.164Z,65.09
2017-01-03T01:09:33.576Z,65.37
2017-01-03T01:10:33.592Z,64.55
2017-01-03T01:11:33.201Z,64.81
2017-01-03T01:12:33.216Z,65.47
2017-01-03T01:13:33.228Z,64.52
2017-01-03T01:14:33.648Z,65.09
2017-01-03T01:15:33.260Z,65.66
2017-01-03T01:16:33.263Z,65.66
2017-01-03T01:17:33.676Z,65.66
2017-01-03T01:18:33.733Z,64.71
2017-01-03T01:19:33.700Z,65.37
2017-01-03T01:20:33.711Z,65.56
2017-01-03T01:21:33.327Z,65.37
2017-01-03T01:22:33.738Z,65.37
2017-01-03T01:23:33.752Z,65.47
2017-01-03T01:24:33.362Z,65.84
2017-01-03T01:25:33.784Z,65.56
2017-01-03T01:26:33.386Z,65.66
2017-01-03T01:27:33.804Z,65.59
2017-01-03T01:28:33.812Z,65.75
2017-01-03T01:29:33.887Z,65.78
2017-01-03T01:30:33.839Z,65.56
2017-01-03T01:31:33.448Z,65.5
2017-01-03T01:32:33.464Z,65.59
2017-01-03T01:33:33.873Z,65.59
2017-01-03T01:34:33.487Z,65.31
2017-01-03T01:35:33.501Z,65.59
2017-01-03T01:36:33.909Z,65.59
2017-01-03T01:37:33.524Z,65.5
2017-01-03T01:38:33.533Z,65.59
2017-01-03T01:39:33.945Z,65.5
2017-01-03T01:40:33.955Z,64.74
2017-01-03T01:41:33.570Z,65.47
2017-01-03T01:42:33.982Z,65.31
2017-01-03T01:43:33.994Z,65.31
2017-01-03T01:44:34.078Z,65.69
2017-01-03T01:45:33.618Z,65.41
2017-01-03T01:46:34.051Z,65.41
2017-01-03T01:47:33.644Z,65.41
2017-01-03T01:48:34.055Z,65.59
2017-01-03T01:49:34.101Z,65.5
2017-01-03T01:50:34.080Z,65.31
2017-01-03T01:51:33.693Z,64.74
2017-01-03T01:52:34.102Z,64.84
2017-01-03T01:53:33.720Z,64.74
2017-01-03T01:54:34.131Z,64.84
2017-01-03T01:55:34.138Z,64.55
2017-01-03T01:56:34.152Z,65.5
2017-01-03T01:57:34.166Z,65.41
2017-01-03T01:58:34.181Z,65.31
2017-01-03T01:59:33.789Z,64.84
2017-01-03T02:00:34.200Z,64.65
2017-01-03T02:01:34.219Z,64.93
2017-01-03T02:02:33.826Z,65.22
2017-01-03T02:03:33.841Z,65.22
2017-01-03T02:04:34.256Z,64.74
2017-01-03T02:05:34.265Z,65.22
2017-01-03T02:06:34.275Z,65.12
2017-01-03T02:07:34.288Z,65.41
2017-01-03T02:08:34.300Z,65.59
2017-01-03T02:09:34.313Z,65.12
2017-01-03T02:10:34.323Z,65.69
2017-01-03T02:11:33.939Z,65.56
2017-01-03T02:12:33.950Z,65.88
2017-01-03T02:13:33.963Z,65.59
2017-01-03T02:14:33.973Z,65.88
2017-01-03T02:15:33.987Z,65.59
2017-01-03T02:16:34.005Z,65.69
2017-01-03T02:17:34.013Z,65.78
2017-01-03T02:18:34.446Z,65.97
2017-01-03T02:19:34.435Z,65.75
2017-01-03T02:20:34.049Z,65.47
2017-01-03T02:21:34.060Z,65.56
2017-01-03T02:22:34.104Z,65.78
2017-01-03T02:23:34.085Z,65.97
2017-01-03T02:24:34.499Z,65.59
2017-01-03T02:25:34.509Z,65.97
2017-01-03T02:26:34.521Z,66.35
2017-01-03T02:27:34.159Z,66.22
2017-01-03T02:28:34.147Z,66.51
2017-01-03T02:29:34.156Z,66.54
2017-01-03T02:30:34.569Z,65.88
2017-01-03T02:31:34.184Z,66.32
2017-01-03T02:32:34.600Z,66.83
2017-01-03T02:33:34.208Z,66.51
2017-01-03T02:34:34.223Z,66.54
2017-01-03T02:35:34.630Z,66.74
2017-01-03T02:36:34.246Z,66.89
2017-01-03T02:37:34.254Z,67.55
2017-01-03T02:38:34.670Z,67.36
2017-01-03T02:39:34.682Z,67.55
2017-01-03T02:40:34.694Z,67.49
2017-01-03T02:41:34.704Z,67.3
2017-01-03T02:42:34.318Z,67.58
2017-01-03T02:43:34.732Z,66.83
2017-01-03T02:44:34.741Z,66.93
2017-01-03T02:45:34.355Z,66.74
2017-01-03T02:46:34.763Z,66.35
2017-01-03T02:47:34.403Z,66.74
2017-01-03T02:48:34.792Z,66.74
2017-01-03T02:49:34.803Z,66.83
2017-01-03T02:50:34.811Z,66.64
2017-01-03T02:51:34.427Z,66.93
2017-01-03T02:52:34.439Z,67.3
2017-01-03T02:53:34.857Z,67.02
2017-01-03T02:54:34.871Z,67.02
2017-01-03T02:55:34.875Z,67.4
2017-01-03T02:56:34.889Z,67.58
2017-01-03T02:57:34.501Z,66.74
2017-01-03T02:58:34.913Z,67.02
2017-01-03T02:59:34.928Z,67.77
2017-01-03T03:00:34.538Z,67.3
2017-01-03T03:01:34.552Z,67.4
2017-01-03T03:02:34.964Z,67.58
2017-01-03T03:03:34.975Z,67.49
2017-01-03T03:04:34.989Z,67.58
2017-01-03T03:05:35.001Z,67.02
2017-01-03T03:06:34.615Z,67.21
2017-01-03T03:07:34.625Z,66.93
2017-01-03T03:08:35.060Z,67.49
2017-01-03T03:09:34.669Z,67.58
2017-01-03T03:10:34.659Z,67.49
2017-01-03T03:11:35.072Z,67.21
2017-01-03T03:12:34.687Z,67.3
2017-01-03T03:13:35.097Z,67.49
2017-01-03T03:14:34.710Z,67.02
2017-01-03T03:15:35.118Z,67.49
2017-01-03T03:16:34.735Z,67.58
2017-01-03T03:17:34.745Z,67.3
2017-01-03T03:18:35.158Z,67.49
2017-01-03T03:19:35.192Z,67.4
2017-01-03T03:20:34.786Z,67.49
2017-01-03T03:21:35.191Z,67.02
2017-01-03T03:22:35.211Z,67.4
2017-01-03T03:23:34.823Z,67.21
2017-01-03T03:24:34.835Z,66.93
2017-01-03T03:25:34.851Z,67.4
2017-01-03T03:26:35.258Z,67.02
2017-01-03T03:27:35.269Z,67.3
2017-01-03T03:28:35.282Z,67.3
2017-01-03T03:29:35.293Z,67.4
2017-01-03T03:30:35.308Z,67.58
2017-01-03T03:31:35.318Z,67.02
2017-01-03T03:32:34.931Z,67.02
2017-01-03T03:33:35.345Z,67.58
2017-01-03T03:34:34.955Z,67.3
2017-01-03T03:35:35.368Z,67.02
2017-01-03T03:36:35.006Z,67.02
2017-01-03T03:37:35.413Z,67.02
2017-01-03T03:38:35.401Z,67.11
2017-01-03T03:39:35.416Z,67.11
2017-01-03T03:40:35.028Z,67.08
2017-01-03T03:41:35.442Z,66.6
2017-01-03T03:42:35.452Z,66.99
2017-01-03T03:43:35.464Z,67.36
2017-01-03T03:44:35.481Z,66.83
2017-01-03T03:45:35.491Z,67.36
2017-01-03T03:46:35.105Z,67.46
2017-01-03T03:47:35.114Z,67.46
2017-01-03T03:48:35.127Z,67.49
2017-01-03T03:49:35.538Z,67.21
2017-01-03T03:50:35.152Z,67.11
2017-01-03T03:51:35.163Z,67.3
2017-01-03T03:52:35.572Z,67.49
2017-01-03T03:53:35.188Z,67.21
2017-01-03T03:54:35.200Z,66.93
2017-01-03T03:55:35.613Z,67.02
2017-01-03T03:56:35.227Z,67.21
2017-01-03T03:57:35.237Z,67.58
2017-01-03T03:58:35.669Z,67.21
2017-01-03T03:59:50.149Z,66.64
2017-01-03T04:00:35.674Z,66.64
2017-01-03T04:01:35.282Z,66.54
2017-01-03T04:02:35.699Z,66.74
2017-01-03T04:03:35.310Z,66.74
2017-01-03T04:04:35.722Z,66.93
2017-01-03T04:05:35.334Z,67.02
2017-01-03T04:06:35.755Z,66.64
2017-01-03T04:07:35.760Z,66.64
2017-01-03T04:08:35.771Z,66.74
2017-01-03T04:09:35.804Z,66.83
2017-01-03T04:10:35.395Z,67.02
2017-01-03T04:11:35.805Z,66.93
2017-01-03T04:12:35.428Z,66.54
2017-01-03T04:13:35.833Z,66.35
2017-01-03T04:14:35.843Z,66.45
2017-01-03T04:15:35.456Z,66.35
2017-01-03T04:16:35.469Z,66.07
2017-01-03T04:17:35.483Z,66.07
2017-01-03T04:18:35.891Z,65.41
2017-01-03T04:19:35.904Z,66.07
2017-01-03T04:20:35.920Z,66.07
2017-01-03T04:21:35.930Z,66.26
2017-01-03T04:22:35.943Z,66.07
2017-01-03T04:23:35.555Z,66.16
2017-01-03T04:24:35.967Z,65.41
2017-01-03T04:25:36.008Z,65.69
2017-01-03T04:26:35.991Z,65.97
2017-01-03T04:27:35.621Z,66.54
2017-01-03T04:28:35.633Z,66.26
2017-01-03T04:29:35.633Z,66.35
2017-01-03T04:30:36.041Z,66.54
2017-01-03T04:31:36.056Z,66.54
2017-01-03T04:32:35.666Z,66.45
2017-01-03T04:33:35.679Z,65.88
2017-01-03T04:34:35.694Z,66.16
2017-01-03T04:35:36.102Z,66.54
2017-01-03T04:36:35.715Z,66.16
2017-01-03T04:37:36.127Z,66.35
2017-01-03T04:38:36.158Z,66.35
2017-01-03T04:39:35.754Z,65.59
2017-01-03T04:40:36.163Z,65.41
2017-01-03T04:41:35.776Z,65.22
2017-01-03T04:42:36.195Z,65.31
2017-01-03T04:43:35.801Z,65.31
2017-01-03T04:44:35.817Z,66.07
2017-01-03T04:45:36.225Z,67.02
2017-01-03T04:46:35.840Z,66.35
2017-01-03T04:47:36.249Z,66.54
2017-01-03T04:48:36.276Z,65.97
2017-01-03T04:49:36.276Z,66.07
2017-01-03T04:50:36.290Z,66.07
2017-01-03T04:51:36.301Z,65.78
2017-01-03T04:52:35.911Z,65.69
2017-01-03T04:53:36.328Z,65.97
2017-01-03T04:54:35.940Z,65.59
2017-01-03T04:55:36.353Z,65.88
2017-01-03T04:56:35.968Z,65.78
2017-01-03T04:57:35.976Z,65.78
2017-01-03T04:58:35.987Z,65.88
2017-01-03T04:59:36.001Z,66.07
2017-01-03T05:00:36.013Z,66.16
2017-01-03T05:01:36.024Z,66.54
2017-01-03T05:02:36.037Z,66.26
2017-01-03T05:03:36.449Z,65.88
2017-01-03T05:04:36.063Z,65.59
2017-01-03T05:05:36.074Z,66.07
2017-01-03T05:06:36.087Z,66.45
2017-01-03T05:07:36.099Z,65.69
2017-01-03T05:08:36.512Z,65.31
2017-01-03T05:09:36.123Z,65.69
2017-01-03T05:10:36.538Z,65.69
2017-01-03T05:11:36.552Z,65.78
2017-01-03T05:12:36.557Z,65.12
2017-01-03T05:13:36.574Z,65.78
2017-01-03T05:14:36.187Z,65.59
2017-01-03T05:15:36.598Z,65.69
2017-01-03T05:16:36.212Z,65.41
2017-01-03T05:17:36.235Z,65.59
2017-01-03T05:18:36.244Z,65.69
2017-01-03T05:19:36.247Z,65.59
2017-01-03T05:20:36.660Z,65.69
2017-01-03T05:21:36.670Z,65.69
2017-01-03T05:22:36.289Z,65.78
2017-01-03T05:23:36.298Z,65.59
2017-01-03T05:24:36.309Z,65.59
2017-01-03T05:25:36.319Z,65.59
2017-01-03T05:26:36.339Z,65.59
2017-01-03T05:27:36.348Z,65.41
2017-01-03T05:28:36.361Z,65.41
2017-01-03T05:29:36.371Z,65.69
2017-01-03T05:30:36.784Z,65.59
2017-01-03T05:31:36.818Z,65.5
2017-01-03T05:32:36.431Z,65.41
2017-01-03T05:33:36.822Z,65.31
2017-01-03T05:34:36.433Z,64.55
2017-01-03T05:35:36.849Z,64.74
2017-01-03T05:36:36.461Z,64.74
2017-01-03T05:37:36.473Z,65.5
2017-01-03T05:38:36.521Z,65.5
2017-01-03T05:39:36.895Z,64.93
2017-01-03T05:40:36.908Z,64.27
2017-01-03T05:41:36.919Z,64.93
2017-01-03T05:42:36.537Z,64.46
2017-01-03T05:43:36.950Z,63.7
2017-01-03T05:44:36.958Z,64.08
2017-01-03T05:45:36.973Z,64.36
2017-01-03T05:46:36.585Z,64.17
2017-01-03T05:47:36.996Z,64.08
2017-01-03T05:48:37.010Z,64.46
2017-01-03T05:49:36.645Z,63.98
2017-01-03T05:50:36.633Z,64.46
2017-01-03T05:51:36.649Z,64.36
2017-01-03T05:52:37.062Z,64.27
2017-01-03T05:53:36.670Z,64.74
2017-01-03T05:54:37.084Z,64.65
2017-01-03T05:55:37.097Z,64.36
2017-01-03T05:56:37.111Z,64.93
2017-01-03T05:57:36.723Z,64.74
2017-01-03T05:58:36.735Z,64.74
2017-01-03T05:59:36.748Z,64.84
2017-01-03T06:00:36.774Z,64.93
2017-01-03T06:01:36.785Z,65.37
2017-01-03T06:02:36.784Z,65.22
2017-01-03T06:03:36.798Z,64.65
2017-01-03T06:04:37.218Z,65.41
2017-01-03T06:05:37.219Z,64.84
2017-01-03T06:06:37.236Z,64.84
2017-01-03T06:07:37.249Z,64.74
2017-01-03T06:08:36.861Z,64.46
2017-01-03T06:09:37.272Z,64.55
2017-01-03T06:10:36.885Z,64.36
2017-01-03T06:11:36.926Z,64.93
2017-01-03T06:12:36.915Z,64.93
2017-01-03T06:13:37.320Z,64.93
2017-01-03T06:14:37.332Z,64.08
2017-01-03T06:15:37.344Z,63.98
2017-01-03T06:16:36.959Z,64.08
2017-01-03T06:17:36.972Z,64.08
2017-01-03T06:18:36.983Z,64.36
2017-01-03T06:19:37.396Z,64.23
2017-01-03T06:20:37.014Z,64.17
2017-01-03T06:21:37.026Z,64.04
2017-01-03T06:22:37.039Z,64.27
2017-01-03T06:23:37.446Z,64.08
2017-01-03T06:24:37.065Z,64.93
2017-01-03T06:25:37.470Z,64.55
2017-01-03T06:26:37.082Z,64.27
2017-01-03T06:27:37.097Z,64.08
2017-01-03T06:28:37.513Z,63.89
2017-01-03T06:29:37.120Z,63.95
2017-01-03T06:30:37.133Z,63.89
2017-01-03T06:31:37.546Z,64.14
2017-01-03T06:32:37.562Z,64.04
2017-01-03T06:33:37.566Z,64.08
2017-01-03T06:34:37.182Z,64.04
2017-01-03T06:35:37.594Z,64.42
2017-01-03T06:36:37.607Z,64.36
2017-01-03T06:37:37.220Z,63.85
2017-01-03T06:38:37.636Z,64.42
2017-01-03T06:39:37.245Z,64.27
2017-01-03T06:40:37.656Z,64.55
2017-01-03T06:41:37.269Z,63.42
2017-01-03T06:42:37.284Z,63.6
2017-01-03T06:43:37.715Z,63.6
2017-01-03T06:44:37.707Z,63.1
2017-01-03T06:45:37.720Z,63.67
2017-01-03T06:46:37.335Z,63.7
2017-01-03T06:47:37.344Z,63.7
2017-01-03T06:48:37.357Z,63.32
2017-01-03T06:49:37.769Z,63.04
2017-01-03T06:50:37.387Z,63.1
2017-01-03T06:51:37.793Z,63.1
2017-01-03T06:52:37.405Z,62.72
2017-01-03T06:53:37.419Z,63.2
2017-01-03T06:54:37.851Z,62.91
2017-01-03T06:55:37.845Z,63.76
2017-01-03T06:56:37.853Z,63.01
2017-01-03T06:57:37.469Z,62.53
2017-01-03T06:58:37.878Z,62.62
2017-01-03T06:59:37.896Z,62.28
2017-01-03T07:00:37.503Z,62.34
2017-01-03T07:01:37.520Z,62.72
2017-01-03T07:02:37.527Z,62.53
2017-01-03T07:03:37.940Z,62.24
2017-01-03T07:04:37.570Z,62.15
2017-01-03T07:05:37.583Z,62.15
2017-01-03T07:06:37.978Z,62.34
2017-01-03T07:07:37.990Z,62.72
2017-01-03T07:08:37.604Z,62.72
2017-01-03T07:09:38.015Z,62.24
2017-01-03T07:10:37.629Z,62.05
2017-01-03T07:11:37.715Z,62.43
2017-01-03T07:12:38.051Z,62.05
2017-01-03T07:13:38.065Z,62.85
2017-01-03T07:14:38.084Z,63.01
2017-01-03T07:15:38.107Z,62.62
2017-01-03T07:16:38.103Z,63.01
2017-01-03T07:17:37.715Z,63.2
2017-01-03T07:18:37.728Z,63.39
2017-01-03T07:19:38.147Z,63.39
2017-01-03T07:20:37.752Z,63.39
2017-01-03T07:21:37.763Z,62.72
2017-01-03T07:22:37.777Z,63.1
2017-01-03T07:23:37.806Z,62.82
2017-01-03T07:24:38.199Z,62.82
2017-01-03T07:25:38.215Z,63.1
2017-01-03T07:26:38.225Z,62.82
2017-01-03T07:27:38.240Z,62.66
2017-01-03T07:28:37.854Z,62.85
2017-01-03T07:29:37.860Z,62.47
2017-01-03T07:30:37.878Z,62.28
2017-01-03T07:31:38.285Z,62.53
2017-01-03T07:32:37.905Z,62.91
2017-01-03T07:33:37.926Z,63.57
2017-01-03T07:34:38.325Z,62.91
2017-01-03T07:35:38.335Z,63.1
2017-01-03T07:36:38.350Z,63.01
2017-01-03T07:37:38.361Z,62.72
2017-01-03T07:38:37.973Z,62.82
2017-01-03T07:39:38.384Z,63.1
2017-01-03T07:40:38.009Z,63.1
2017-01-03T07:41:38.019Z,62.82
2017-01-03T07:42:38.024Z,62.82
2017-01-03T07:43:38.435Z,62.53
2017-01-03T07:44:38.461Z,62.72
2017-01-03T07:45:38.459Z,62.82
2017-01-03T07:46:38.471Z,62.56
2017-01-03T07:47:38.084Z,62.05
2017-01-03T07:48:38.097Z,61.96
2017-01-03T07:49:38.111Z,62.15
2017-01-03T07:50:38.542Z,62.15
2017-01-03T07:51:38.133Z,61.8
2017-01-03T07:52:38.549Z,61.68
2017-01-03T07:53:38.159Z,62.15
2017-01-03T07:54:38.578Z,62.05
2017-01-03T07:55:38.583Z,61.49
2017-01-03T07:56:38.201Z,62.15
2017-01-03T07:57:38.207Z,62.24
2017-01-03T07:58:38.620Z,62.34
2017-01-03T07:59:38.633Z,61.87
2017-01-03T08:00:38.642Z,62.34
2017-01-03T08:01:38.259Z,62.08
2017-01-03T08:02:38.669Z,62.34
2017-01-03T08:03:38.281Z,61.68
2017-01-03T08:04:38.692Z,61.77
2017-01-03T08:05:38.717Z,62.05
2017-01-03T08:06:38.323Z,61.68
2017-01-03T08:07:38.331Z,61.87
2017-01-03T08:08:38.344Z,61.96
2017-01-03T08:09:38.355Z,61.96
2017-01-03T08:10:38.766Z,62.05
2017-01-03T08:11:38.780Z,62.34
2017-01-03T08:12:38.394Z,62.15
2017-01-03T08:13:38.405Z,62.15
2017-01-03T08:14:38.821Z,62.24
2017-01-03T08:15:38.428Z,61.58
2017-01-03T08:16:38.838Z,61.33
2017-01-03T08:17:38.853Z,61.3
2017-01-03T08:18:38.464Z,61.3
2017-01-03T08:19:38.479Z,61.58
2017-01-03T08:20:38.888Z,61.4
2017-01-03T08:21:38.503Z,61.4
2017-01-03T08:22:38.517Z,61.77
2017-01-03T08:23:38.937Z,61.43
2017-01-03T08:24:38.940Z,61.3
2017-01-03T08:25:38.953Z,60.83
2017-01-03T08:26:38.961Z,61.05
2017-01-03T08:27:38.577Z,61.05
2017-01-03T08:28:38.988Z,61.61
2017-01-03T08:29:38.602Z,61.33
2017-01-03T08:30:39.020Z,61.68
2017-01-03T08:31:39.025Z,61.24
2017-01-03T08:32:38.640Z,61.24
2017-01-03T08:33:39.056Z,61.05
2017-01-03T08:34:39.069Z,60.76
2017-01-03T08:35:39.076Z,61.4
2017-01-03T08:36:38.688Z,61.33
2017-01-03T08:37:38.700Z,61.61
2017-01-03T08:38:38.717Z,61.24
2017-01-03T08:39:38.725Z,60.57
2017-01-03T08:40:39.135Z,61.14
2017-01-03T08:41:38.754Z,61.24
2017-01-03T08:42:39.161Z,60.95
2017-01-03T08:43:38.777Z,60.95
2017-01-03T08:44:39.191Z,61.43
2017-01-03T08:45:39.197Z,61.99
2017-01-03T08:46:39.209Z,61.99
2017-01-03T08:47:38.822Z,61.8
2017-01-03T08:48:39.239Z,61.71
2017-01-03T08:49:39.255Z,61.71
2017-01-03T08:50:39.259Z,61.05
2017-01-03T08:51:38.873Z,60.76
2017-01-03T08:52:38.888Z,61.33
2017-01-03T08:53:39.301Z,61.14
2017-01-03T08:54:38.910Z,61.33
2017-01-03T08:55:39.325Z,61.14
2017-01-03T08:56:38.933Z,61.33
2017-01-03T08:57:38.976Z,60.76
2017-01-03T08:58:38.959Z,61.14
2017-01-03T08:59:39.370Z,60.86
2017-01-03T09:00:39.381Z,61.33
2017-01-03T09:01:38.996Z,61.24
2017-01-03T09:02:39.008Z,61.33
2017-01-03T09:03:39.020Z,61.24
2017-01-03T09:04:39.031Z,60.67
2017-01-03T09:05:39.046Z,60.86
2017-01-03T09:06:39.460Z,60.76
2017-01-03T09:07:39.090Z,60.86
2017-01-03T09:08:39.079Z,61.14
2017-01-03T09:09:39.495Z,60.67
2017-01-03T09:10:39.103Z,61.05
2017-01-03T09:11:39.516Z,60.86
2017-01-03T09:12:39.526Z,60.86
2017-01-03T09:13:39.542Z,61.24
2017-01-03T09:14:39.554Z,60.86
2017-01-03T09:15:39.167Z,61.33
2017-01-03T09:16:39.177Z,61.24
2017-01-03T09:17:39.193Z,61.05
2017-01-03T09:18:39.204Z,61.33
2017-01-03T09:19:39.219Z,61.33
2017-01-03T09:20:39.229Z,60.86
2017-01-03T09:21:39.238Z,61.24
2017-01-03T09:22:39.650Z,60.76
2017-01-03T09:23:39.262Z,61.43
2017-01-03T09:24:39.276Z,61.33
2017-01-03T09:25:39.689Z,61.8
2017-01-03T09:26:39.301Z,61.71
2017-01-03T09:27:39.727Z,61.61
2017-01-03T09:28:39.724Z,61.8
2017-01-03T09:29:39.735Z,61.9
2017-01-03T09:30:39.353Z,61.71
2017-01-03T09:31:39.364Z,61.52
2017-01-03T09:32:39.375Z,61.24
2017-01-03T09:33:39.786Z,61.71
2017-01-03T09:34:39.404Z,61.99
2017-01-03T09:35:39.420Z,61.8
2017-01-03T09:36:39.423Z,61.33
2017-01-03T09:37:39.437Z,60.95
2017-01-03T09:38:39.863Z,61.05
2017-01-03T09:39:39.462Z,60.76
2017-01-03T09:40:39.871Z,59.81
2017-01-03T09:41:39.487Z,61.05
2017-01-03T09:42:39.897Z,61.24
2017-01-03T09:43:39.510Z,60.76
2017-01-03T09:44:39.922Z,59.81
2017-01-03T09:45:39.934Z,60
2017-01-03T09:46:39.949Z,60
2017-01-03T09:47:39.966Z,60.28
2017-01-03T09:48:39.574Z,60.1
2017-01-03T09:49:39.987Z,60
2017-01-03T09:50:39.598Z,60.19
2017-01-03T09:51:40.015Z,59.91
2017-01-03T09:52:40.024Z,60.28
2017-01-03T09:53:39.639Z,59.53
2017-01-03T09:54:39.652Z,59.05
2017-01-03T09:55:40.062Z,59.25
2017-01-03T09:56:40.079Z,58.23
2017-01-03T09:57:39.693Z,59.15
2017-01-03T09:58:40.098Z,59.05
2017-01-03T09:59:39.720Z,58.39
2017-01-03T10:00:40.124Z,59.15
2017-01-03T10:01:39.739Z,59.15
2017-01-03T10:02:40.152Z,57.82
2017-01-03T10:03:39.766Z,57.82
2017-01-03T10:04:40.176Z,57.92
2017-01-03T10:05:40.189Z,57.35
2017-01-03T10:06:39.803Z,57.54
2017-01-03T10:07:39.818Z,57.25
2017-01-03T10:08:40.226Z,58.01
2017-01-03T10:09:40.243Z,58.39
2017-01-03T10:10:40.269Z,58.2
2017-01-03T10:11:39.882Z,58.39
2017-01-03T10:12:39.881Z,57.92
2017-01-03T10:13:39.893Z,57.54
2017-01-03T10:14:40.306Z,57.82
2017-01-03T10:15:40.323Z,58.58
2017-01-03T10:16:39.934Z,58.29
2017-01-03T10:17:39.948Z,58.2
2017-01-03T10:18:39.962Z,58.96
2017-01-03T10:19:40.369Z,58.77
2017-01-03T10:20:40.382Z,60.19
2017-01-03T10:21:40.405Z,62.94
2017-01-03T10:22:40.409Z,62.47
2017-01-03T10:23:40.019Z,62.28
2017-01-03T10:24:40.034Z,60.57
2017-01-03T10:25:40.051Z,60.19
2017-01-03T10:26:40.060Z,60
2017-01-03T10:27:40.073Z,60.19
2017-01-03T10:28:40.490Z,61.33
2017-01-03T10:29:40.101Z,61.05
2017-01-03T10:30:40.510Z,60.86
2017-01-03T10:31:40.122Z,60.28
2017-01-03T10:32:40.160Z,58.96
2017-01-03T10:33:40.548Z,59.25
2017-01-03T10:34:40.560Z,59.12
2017-01-03T10:35:40.573Z,59.12
2017-01-03T10:36:40.586Z,59.88
2017-01-03T10:37:40.600Z,60.06
2017-01-03T10:38:40.212Z,58.74
2017-01-03T10:39:40.622Z,59.03
2017-01-03T10:40:40.236Z,59.31
2017-01-03T10:41:40.260Z,59.31
2017-01-03T10:42:40.263Z,60.16
2017-01-03T10:43:40.693Z,59.22
2017-01-03T10:44:40.685Z,59.5
2017-01-03T10:45:40.698Z,59.41
2017-01-03T10:46:40.314Z,59.88
2017-01-03T10:47:40.324Z,59.03
2017-01-03T10:48:40.336Z,58.65
2017-01-03T10:49:40.353Z,58.93
2017-01-03T10:50:40.761Z,59.81
2017-01-03T10:51:40.773Z,59.91
2017-01-03T10:52:40.784Z,59.81
2017-01-03T10:53:40.812Z,59.05
2017-01-03T10:54:40.424Z,58.77
2017-01-03T10:55:40.426Z,59.25
2017-01-03T10:56:40.437Z,59.34
2017-01-03T10:57:40.450Z,59.34
2017-01-03T10:58:40.463Z,58.29
2017-01-03T10:59:40.877Z,57.92
2017-01-03T11:00:40.893Z,56.97
2017-01-03T11:01:40.575Z,56.97
2017-01-03T11:02:40.912Z,57.25
2017-01-03T11:03:40.925Z,57.82
2017-01-03T11:04:40.951Z,58.86
2017-01-03T11:05:40.953Z,58.67
2017-01-03T11:06:40.565Z,58.77
2017-01-03T11:07:40.582Z,58.58
2017-01-03T11:08:40.994Z,58.11
2017-01-03T11:09:41.002Z,57.82
2017-01-03T11:10:41.017Z,57.82
2017-01-03T11:11:41.029Z,57.73
2017-01-03T11:12:41.043Z,57.25
2017-01-03T11:13:40.657Z,57.25
2017-01-03T11:14:41.068Z,57.16
2017-01-03T11:15:40.684Z,56.68
2017-01-03T11:16:40.718Z,56.68
2017-01-03T11:17:41.106Z,57.06
2017-01-03T11:18:40.720Z,57.06
2017-01-03T11:19:40.733Z,56.97
2017-01-03T11:20:40.748Z,56.78
2017-01-03T11:21:41.160Z,56.87
2017-01-03T11:22:40.773Z,57.06
2017-01-03T11:23:41.186Z,56.78
2017-01-03T11:24:41.201Z,56.4
2017-01-03T11:25:41.209Z,56.59
2017-01-03T11:26:41.242Z,56.68
2017-01-03T11:27:41.237Z,55.26
2017-01-03T11:28:40.850Z,55.74
2017-01-03T11:29:41.274Z,56.68
2017-01-03T11:30:40.882Z,56.87
2017-01-03T11:31:40.889Z,56.87
2017-01-03T11:32:40.904Z,56.78
2017-01-03T11:33:41.314Z,57.06
2017-01-03T11:34:41.335Z,56.78
2017-01-03T11:35:40.943Z,56.3
2017-01-03T11:36:41.360Z,55.45
2017-01-03T11:37:41.375Z,55.36
2017-01-03T11:38:40.981Z,55.93
2017-01-03T11:39:40.992Z,55.26
2017-01-03T11:40:41.007Z,56.21
2017-01-03T11:41:41.418Z,56.21
2017-01-03T11:42:41.031Z,55.64
2017-01-03T11:43:41.050Z,55.26
2017-01-03T11:44:41.462Z,55.36
2017-01-03T11:45:41.072Z,56.12
2017-01-03T11:46:41.483Z,55.36
2017-01-03T11:47:41.499Z,56.78
2017-01-03T11:48:41.113Z,56.97
2017-01-03T11:49:41.522Z,57.16
2017-01-03T11:50:41.540Z,57.16
2017-01-03T11:51:41.546Z,57.54
2017-01-03T11:52:41.563Z,57.54
2017-01-03T11:53:41.176Z,57.92
2017-01-03T11:54:41.591Z,57.54
2017-01-03T11:55:41.202Z,56.87
2017-01-03T11:56:41.216Z,56.87
2017-01-03T11:57:41.228Z,57.16
2017-01-03T11:58:41.256Z,57.16
2017-01-03T11:59:41.267Z,58.01
2017-01-03T12:00:41.268Z,57.92
2017-01-03T12:01:41.281Z,57.95
2017-01-03T12:02:41.294Z,57.35
2017-01-03T12:03:41.306Z,55.76
2017-01-03T12:04:41.318Z,55.57
2017-01-03T12:05:41.732Z,56.3
2017-01-03T12:06:41.743Z,56.52
2017-01-03T12:07:41.361Z,55.48
2017-01-03T12:08:41.771Z,55.67
2017-01-03T12:09:41.383Z,55.48
2017-01-03T12:10:41.400Z,55.38
2017-01-03T12:11:41.813Z,55.36
2017-01-03T12:12:41.847Z,55.76
2017-01-03T12:13:41.835Z,55.45
2017-01-03T12:14:41.853Z,55.19
2017-01-03T12:15:41.863Z,55.76
2017-01-03T12:16:41.475Z,55.48
2017-01-03T12:17:41.491Z,55.29
2017-01-03T12:18:41.903Z,55.76
2017-01-03T12:19:41.518Z,55.29
2017-01-03T12:20:41.929Z,55
2017-01-03T12:21:41.545Z,55
2017-01-03T12:22:41.958Z,55
2017-01-03T12:23:41.572Z,55
2017-01-03T12:24:41.983Z,55.29
2017-01-03T12:25:41.597Z,55
2017-01-03T12:26:41.613Z,54.91
2017-01-03T12:27:41.625Z,54.82
2017-01-03T12:28:42.039Z,55.19
2017-01-03T12:29:41.654Z,55
2017-01-03T12:30:42.068Z,54.82
2017-01-03T12:31:42.094Z,54.82
2017-01-03T12:32:42.096Z,55.48
2017-01-03T12:33:42.107Z,55.38
2017-01-03T12:34:42.140Z,55.57
2017-01-03T12:35:42.132Z,55.48
2017-01-03T12:36:42.148Z,54.91
2017-01-03T12:37:41.764Z,55.19
2017-01-03T12:38:42.176Z,55.38
2017-01-03T12:39:41.788Z,55.38
2017-01-03T12:40:42.202Z,54.91
2017-01-03T12:41:42.213Z,55.19
2017-01-03T12:42:42.230Z,55.38
2017-01-03T12:43:42.240Z,55.1
2017-01-03T12:44:41.860Z,54.91
2017-01-03T12:45:41.870Z,55
2017-01-03T12:46:41.883Z,55.48
2017-01-03T12:47:42.299Z,55
2017-01-03T12:48:42.333Z,54.66
2017-01-03T12:49:41.940Z,55.1
2017-01-03T12:50:42.340Z,54.94
2017-01-03T12:51:42.351Z,54.56
2017-01-03T12:52:41.969Z,54.85
2017-01-03T12:53:41.979Z,53.61
2017-01-03T12:54:42.394Z,54.18
2017-01-03T12:55:42.409Z,53.99